Nearby METAR Reports

 

LIBG - Grottaglie(Civ/A, Italy
Distance from station: СИ 13km
Актуализирано: 05/02/2023 09:50
Nearby showers, Частична облачност
Nearby showers, Частична облачност
 Вятър от С
Вятър: С 37 km/h
Температура: 4°C
Wind Chill: -2°C
Точка на оросяване: -6°C
Влажност: 48%
Барометър: 1023 hPa
Метео сводка: Nearby Showers
Clouds: Частична облачност
Visibility: 10 km
Cloud details: Частична облачност 914 m
2023/02/05 08:50 LIBG 050850Z 35020KT 9999 VCSH SCT030 04/M06 Q1023
LIBH - Marina Di Ginosa, Italy
Distance from station: З 33km
Актуализирано: 05/02/2023 09:55
Преобладаваща облачност
Преобладаваща облачност
 Вятър от С
Вятър: С 44 km/h, Порив: 70 km/h
Температура: 6°C
Wind Chill: 1°C
Точка на оросяване: -5°C
Влажност: 46%
Барометър: 1021 hPa
Clouds: Преобладаваща облачност
Visibility: 10 km
Cloud details: Преобладаваща облачност 457 m
2023/02/05 08:55 LIBH 050855Z 36024G38KT 9999 BKN015 06/M05 Q1021 RMK BKN QUK 3 QUL 2 E VIS MAR 20 KM VIS MIN 9999
 
LIBV - Gioia Del Colle, Italy
Distance from station: СЗ 45km
Актуализирано: 05/02/2023 10:26
Light snow grains, Showers, Преобладаваща облачност
Light snow grains, Showers, Преобладаваща облачност
 Вятър от СЗ
Вятър: СЗ 61 km/h
Температура: 3°C
Wind Chill: -5°C
Точка на оросяване: -5°C
Влажност: 56%
Барометър: 1023 hPa
Метео сводка: Light snow grains, Showers
Clouds: Преобладаваща облачност
Visibility: 5 km
Cloud details: Преобладаваща облачност 914 m
2023/02/05 09:26 LIBV 050926Z 31033KT 5000 -SHSG BKN030 03/M05 Q1023 RMK BKN VIS MIN 5000 WIND THR32 36022G32KT WIND THR14 36024G36KT WHT
LIBR - Brindisi/Casale, Italy
Distance from station: ИСИ 62km
Актуализирано: 05/02/2023 10:50
Частична облачност
Частична облачност
 Вятър от С
Вятър: С 46 km/h
Температура: 6°C
Wind Chill: 1°C
Точка на оросяване: -7°C
Влажност: 39%
Барометър: 1022 hPa
Clouds: Частична облачност
Visibility: 10 km
Cloud details: Частична облачност 1372 m
2023/02/05 09:50 LIBR 050950Z 01025KT 9999 SCT045 06/M07 Q1022
 
LIBN - Lecce (it-Afb), Italy
Distance from station: ИЮИ 79km
Актуализирано: 05/02/2023 09:55
Частична облачност
Частична облачност
 Вятър от С
Вятър: С 39 km/h, Порив: 57 km/h
Температура: 5°C
Wind Chill: -1°C
Точка на оросяване: -3°C
Влажност: 57%
Барометър: 1021 hPa
Clouds: Частична облачност
Visibility: 10 km
Cloud details: Few Clouds 305 m
Частична облачност 914 m
2023/02/05 08:55 LIBN 050855Z 36021G31KT 9999 FEW010 SCT030 05/M03 Q1021
LIBD - Bari/Palese Macc, Italy
Distance from station: ССЗ 85km
Актуализирано: 05/02/2023 10:50
Частична облачност
Частична облачност
 Вятър от С
Вятър: С 30 km/h, Порив: 50 km/h
Температура: 6°C
Wind Chill: 2°C
Точка на оросяване: -6°C
Влажност: 42%
Барометър: 1026 hPa
Clouds: Частична облачност
Visibility: 10 km
Cloud details: Частична облачност 1372 m
2023/02/05 09:50 LIBD 050950Z 35016G27KT 320V020 9999 SCT045 06/M06 Q1026